Airfield :
LOGIN :

Register | Disclaimer

   EN    FR    IT 

 










Legend :    VFR   Marginal VFR   IFR   Intensive IFR   Very Intensive IFR
Visi :
Ceiling :
>= 8 km
>= 3000ft
5 to 8 km
1000 to 3000 ft
1500m to 5 km
500 to 1000 ft
800 to 1500m
200 to 500 ft
< 800m
< 200 ft
Symbols :   Thunderstorms  Fog  Heavy snow  Heavy precipitations  Wind > 20 kt
SIGMETs :     Misc.  Thunderstorms  Icing  Turbulence  Mountain Waves  Volcanic Ashes






- Airport Elevation : 1071 ft
- IATA code : LWO


UKLL - L'viv

CURRENT METAR :
  • 190730Z 16002MPS 9000 BKN046 13/10 Q1017 R13/D NOSIG

EXPIRED METARs :
  • 190700Z 19002MPS 160V220 9999 BKN042 12/10 Q1017 R13/D NOSIG
  • 190630Z 19002MPS 9999 BKN048 12/10 Q1017 R13/CLRD// NOSIG
  • 190600Z 00000MPS 9000 NSC 10/08 Q1017 R13/D NOSIG
  • 190530Z 00000MPS 9000 NSC 09/08 Q1017 R13/CLRD// NOSIG
  • 190500Z 17002MPS 9000 NSC 09/08 Q1017 R13/D NOSIG

TAF TAF UKLL
Valid from the 19 at 06:00 until the 20 at 06:00 UTC


190503Z 1906/2006 18003MPS 5000 BR SCT030
TEMPO 1909/1916 20006G12MPS
TEMPO 1918/2006 0400 FG VV002



MET'MAP, your aeronautical weather chart ! - Copyright ORBIFLY December 2007 - Disclaimer

ORBIFLY MET'MAP TEAM :

Programming & Development : Alexandra Zaïnal
Concept & Development : Baudouin d'Aumeries
Co-Development & Prog : Marc-Olivier Méhu
Technical & hardware support : Manuel Goepfert

Contact : metmap@orbifly.com




SOURCES & CREDITS :

   NOAA